createdAt,value
2019-04-04T00:01:55.894Z,32.75
2019-04-04T00:04:24.522Z,33.02
2019-04-04T00:06:53.412Z,32.08
2019-04-04T00:09:21.992Z,31.23
2019-04-04T00:11:50.530Z,29.80
2019-04-04T00:14:19.472Z,30.77
2019-04-04T00:16:48.835Z,30.68
2019-04-04T00:19:18.178Z,31.42
2019-04-04T00:21:46.770Z,24.35
2019-04-04T00:24:15.443Z,25.20
2019-04-04T00:26:44.030Z,24.25
2019-04-04T00:29:13.017Z,25.17
2019-04-04T00:31:41.812Z,22.98
2019-04-04T00:34:10.348Z,19.92
2019-04-04T00:36:38.903Z,20.25
2019-04-04T00:39:09.537Z,20.77
2019-04-04T00:41:38.709Z,22.07
2019-04-04T00:44:07.905Z,18.52
2019-04-04T00:46:36.455Z,19.75
2019-04-04T00:49:05.458Z,18.73
2019-04-04T00:51:34.276Z,21.17
2019-04-04T00:54:03.264Z,20.68
2019-04-04T00:56:32.176Z,19.73
2019-04-04T00:59:00.964Z,19.62
2019-04-04T01:01:29.475Z,18.67
2019-04-04T01:04:00.344Z,20.27
2019-04-04T01:06:29.179Z,18.32
2019-04-04T01:08:57.763Z,20.40
2019-04-04T01:11:26.319Z,19.15
2019-04-04T01:13:57.561Z,17.48
2019-04-04T01:16:25.337Z,18.77
2019-04-04T01:18:53.921Z,18.15
2019-04-04T01:21:22.916Z,18.87
2019-04-04T01:23:51.615Z,19.48
2019-04-04T01:26:22.538Z,17.57
2019-04-04T01:28:51.220Z,18.82
2019-04-04T01:31:20.006Z,16.97
2019-04-04T01:33:50.836Z,18.37
2019-04-04T01:36:19.337Z,16.87
2019-04-04T01:38:47.911Z,17.90
2019-04-04T01:41:16.808Z,18.60
2019-04-04T01:43:45.490Z,18.70
2019-04-04T01:46:15.283Z,18.35
2019-04-04T01:48:44.400Z,18.17
2019-04-04T01:51:13.389Z,18.27
2019-04-04T01:53:41.978Z,16.65
2019-04-04T01:56:10.555Z,17.73
2019-04-04T01:58:41.687Z,16.97
2019-04-04T02:01:09.668Z,17.42
2019-04-04T02:03:38.265Z,16.48
2019-04-04T02:06:07.146Z,16.77
2019-04-04T02:08:36.153Z,16.40
2019-04-04T02:11:05.534Z,16.40
2019-04-04T02:13:34.942Z,17.70
2019-04-04T02:16:03.530Z,16.80
2019-04-04T02:18:32.534Z,16.48
2019-04-04T02:21:01.217Z,16.50
2019-04-04T02:23:31.715Z,16.25
2019-04-04T02:26:00.339Z,16.45
2019-04-04T02:28:28.911Z,14.80
2019-04-04T02:30:57.713Z,16.25
2019-04-04T02:33:32.006Z,16.48
2019-04-04T02:35:57.936Z,15.23
2019-04-04T02:38:28.107Z,18.05
2019-04-04T02:40:56.948Z,16.77
2019-04-04T02:43:28.371Z,16.10
2019-04-04T02:45:55.851Z,17.35
2019-04-04T02:48:24.798Z,17.82
2019-04-04T02:50:53.839Z,17.32
2019-04-04T02:53:22.547Z,17.42
2019-04-04T02:55:51.523Z,17.05
2019-04-04T02:58:20.541Z,17.45
2019-04-04T03:00:49.235Z,18.17
2019-04-04T03:03:17.828Z,17.00
2019-04-04T03:05:50.752Z,17.15
2019-04-04T03:08:17.105Z,17.32
2019-04-04T03:10:48.953Z,16.95
2019-04-04T03:13:16.655Z,17.95
2019-04-04T03:15:48.171Z,18.65
2019-04-04T03:18:15.643Z,18.48
2019-04-04T03:20:44.319Z,18.02
2019-04-04T03:23:13.227Z,18.87
2019-04-04T03:25:41.905Z,18.87
2019-04-04T03:28:10.481Z,18.62
2019-04-04T03:30:39.025Z,19.98
2019-04-04T03:33:07.881Z,20.10
2019-04-04T03:35:36.539Z,19.00
2019-04-04T03:38:05.127Z,18.90
2019-04-04T03:40:33.917Z,17.77
2019-04-04T03:43:03.008Z,18.27
2019-04-04T03:45:31.693Z,18.65
2019-04-04T03:48:00.284Z,19.50
2019-04-04T03:50:30.582Z,19.45
2019-04-04T03:52:59.699Z,20.50
2019-04-04T03:55:28.680Z,21.02
2019-04-04T03:57:57.481Z,19.37
2019-04-04T04:00:32.009Z,19.82
2019-04-04T04:03:00.593Z,20.02
2019-04-04T04:05:34.549Z,19.00
2019-04-04T04:08:01.650Z,19.62
2019-04-04T04:10:33.350Z,20.70
2019-04-04T04:13:00.573Z,21.35
2019-04-04T04:15:30.690Z,23.45
2019-04-04T04:17:59.458Z,23.62
2019-04-04T04:20:28.047Z,24.57
2019-04-04T04:22:56.637Z,23.70
2019-04-04T04:25:25.172Z,23.47
2019-04-04T04:27:54.208Z,21.65
2019-04-04T04:30:23.200Z,23.67
2019-04-04T04:32:55.837Z,22.82
2019-04-04T04:35:22.312Z,22.60
2019-04-04T04:37:53.474Z,22.93
2019-04-04T04:40:21.436Z,23.42
2019-04-04T04:42:50.728Z,22.82
2019-04-04T04:45:19.260Z,24.77
2019-04-04T04:47:47.895Z,24.85
2019-04-04T04:50:16.580Z,25.50
2019-04-04T04:52:47.426Z,25.37
2019-04-04T04:55:16.803Z,25.88
2019-04-04T04:57:45.617Z,25.20
2019-04-04T05:00:16.121Z,24.95
2019-04-04T05:02:44.541Z,25.65
2019-04-04T05:05:13.718Z,24.57
2019-04-04T05:07:44.653Z,25.52
2019-04-04T05:10:15.073Z,25.05
2019-04-04T05:12:44.313Z,25.70
2019-04-04T05:15:13.276Z,25.90
2019-04-04T05:17:45.135Z,25.17
2019-04-04T05:20:14.344Z,26.48
2019-04-04T05:22:43.220Z,25.82
2019-04-04T05:25:11.907Z,25.60
2019-04-04T05:27:40.603Z,26.07
2019-04-04T05:30:09.794Z,24.98
2019-04-04T05:32:38.379Z,26.05
2019-04-04T05:35:07.539Z,24.67
2019-04-04T05:37:38.216Z,25.48
2019-04-04T05:40:09.455Z,26.35
2019-04-04T05:42:38.155Z,26.77
2019-04-04T05:45:07.752Z,27.42
2019-04-04T05:47:36.436Z,26.45
2019-04-04T05:50:06.657Z,27.58
2019-04-04T05:52:35.341Z,26.73
2019-04-04T05:55:10.067Z,26.12
2019-04-04T05:57:37.000Z,27.30
2019-04-04T06:00:08.063Z,26.93
2019-04-04T06:02:36.790Z,26.17
2019-04-04T06:05:06.813Z,27.62
2019-04-04T06:07:36.480Z,27.42
2019-04-04T06:10:07.509Z,27.73
2019-04-04T06:12:37.669Z,27.15
2019-04-04T06:15:07.213Z,26.25
2019-04-04T06:17:38.799Z,26.97
2019-04-04T06:20:08.018Z,26.77
2019-04-04T06:22:36.675Z,25.20
2019-04-04T06:25:06.952Z,28.70
2019-04-04T06:27:39.876Z,24.52
2019-04-04T06:30:08.008Z,24.50
2019-04-04T06:32:38.866Z,23.05
2019-04-04T06:35:07.385Z,21.07
2019-04-04T06:37:38.428Z,20.60
2019-04-04T06:40:08.011Z,20.15
2019-04-04T06:42:37.164Z,20.30
2019-04-04T06:45:07.452Z,18.45
2019-04-04T06:47:36.176Z,18.10
2019-04-04T06:50:08.201Z,16.87
2019-04-04T06:55:06.702Z,16.80
2019-04-04T06:57:36.589Z,17.48
2019-04-04T07:00:08.662Z,16.73
2019-04-04T07:02:37.274Z,18.32
2019-04-04T07:05:10.744Z,16.80
2019-04-04T07:07:43.116Z,17.65
2019-04-04T07:10:10.495Z,16.57
2019-04-04T07:12:39.176Z,16.50
2019-04-04T07:15:11.216Z,15.80
2019-04-04T07:17:40.388Z,16.32
2019-04-04T07:20:10.375Z,16.05
2019-04-04T07:22:39.096Z,16.15
2019-04-04T07:25:07.900Z,16.90
2019-04-04T07:27:36.483Z,16.45
2019-04-04T07:30:07.257Z,15.40
2019-04-04T07:32:35.831Z,15.72
2019-04-04T07:35:06.956Z,14.98
2019-04-04T07:37:35.648Z,14.80
2019-04-04T07:40:06.111Z,15.85
2019-04-04T07:42:34.677Z,15.58
2019-04-04T07:45:04.790Z,15.30
2019-04-04T07:47:33.512Z,13.32
2019-04-04T07:50:02.100Z,13.50
2019-04-04T07:52:32.747Z,14.20
2019-04-04T07:55:01.005Z,13.70
2019-04-04T07:57:30.307Z,14.55
2019-04-04T07:59:59.091Z,14.10
2019-04-04T08:02:27.682Z,13.43
2019-04-04T08:04:56.297Z,14.18
2019-04-04T08:07:24.896Z,14.80
2019-04-04T08:09:53.819Z,14.98
2019-04-04T08:12:22.477Z,14.28
2019-04-04T08:14:51.060Z,13.98
2019-04-04T08:17:19.722Z,13.15
2019-04-04T08:19:59.173Z,13.55
2019-04-04T08:22:19.213Z,13.43
2019-04-04T08:24:47.886Z,12.82
2019-04-04T08:27:16.599Z,12.05
2019-04-04T08:29:45.187Z,13.55
2019-04-04T08:32:15.202Z,13.08
2019-04-04T08:34:43.811Z,12.93
2019-04-04T08:37:12.473Z,13.70
2019-04-04T08:39:41.163Z,14.45
2019-04-04T08:42:09.881Z,13.55
2019-04-04T08:44:38.439Z,13.78
2019-04-04T08:47:07.034Z,14.93
2019-04-04T08:49:35.774Z,14.70
2019-04-04T08:52:16.081Z,12.78
2019-04-04T08:54:35.335Z,13.28
2019-04-04T08:57:03.933Z,12.55
2019-04-04T08:59:32.500Z,12.98
2019-04-04T09:02:01.107Z,13.32
2019-04-04T09:04:29.691Z,13.75
2019-04-04T09:06:58.259Z,14.33
2019-04-04T09:09:26.886Z,14.85
2019-04-04T09:11:55.667Z,14.53
2019-04-04T09:14:24.550Z,14.43
2019-04-04T09:16:53.082Z,13.68
2019-04-04T09:19:21.862Z,14.10
2019-04-04T09:21:50.489Z,16.10
2019-04-04T09:24:19.274Z,16.30
2019-04-04T09:26:48.208Z,15.28
2019-04-04T09:29:17.061Z,16.48
2019-04-04T09:31:45.599Z,16.20
2019-04-04T09:34:14.644Z,15.05
2019-04-04T09:36:43.317Z,15.63
2019-04-04T09:39:12.007Z,15.30
2019-04-04T09:41:40.697Z,15.00
2019-04-04T09:44:09.487Z,15.10
2019-04-04T09:46:38.024Z,14.87
2019-04-04T09:49:06.598Z,15.20
2019-04-04T09:51:35.316Z,15.10
2019-04-04T09:54:03.925Z,15.83
2019-04-04T09:56:32.728Z,15.63
2019-04-04T09:59:01.428Z,15.95
2019-04-04T10:01:30.024Z,16.82
2019-04-04T10:03:58.572Z,16.10
2019-04-04T10:06:27.114Z,15.58
2019-04-04T10:08:55.844Z,15.55
2019-04-04T10:11:24.531Z,14.45
2019-04-04T10:13:53.106Z,13.72
2019-04-04T10:16:21.629Z,14.03
2019-04-04T10:18:50.427Z,13.83
2019-04-04T10:21:18.988Z,13.45
2019-04-04T10:23:47.713Z,13.60
2019-04-04T10:26:16.585Z,14.33
2019-04-04T10:28:45.176Z,13.40
2019-04-04T10:31:13.854Z,13.20
2019-04-04T10:33:43.014Z,14.28
2019-04-04T10:36:11.575Z,12.58
2019-04-04T10:38:40.117Z,13.08
2019-04-04T10:41:08.829Z,13.35
2019-04-04T10:43:37.413Z,13.53
2019-04-04T10:46:06.104Z,14.30
2019-04-04T10:48:35.013Z,13.80
2019-04-04T10:51:03.785Z,14.58
2019-04-04T10:53:32.321Z,14.45
2019-04-04T10:56:01.063Z,14.05
2019-04-04T10:58:31.058Z,14.90
2019-04-04T11:00:59.815Z,14.63
2019-04-04T11:03:28.397Z,15.08
2019-04-04T11:05:56.977Z,14.55
2019-04-04T11:08:25.583Z,13.40
2019-04-04T11:10:54.159Z,13.78
2019-04-04T11:13:32.939Z,12.68
2019-04-04T11:15:53.184Z,13.00
2019-04-04T11:18:21.864Z,14.55
2019-04-04T11:20:50.662Z,13.90
2019-04-04T11:23:19.243Z,14.18
2019-04-04T11:25:48.445Z,14.55
2019-04-04T11:28:17.146Z,13.68
2019-04-04T11:30:45.765Z,14.20
2019-04-04T11:33:15.129Z,15.18
2019-04-04T11:35:43.820Z,13.80
2019-04-04T11:38:12.505Z,14.75
2019-04-04T11:40:41.195Z,14.47
2019-04-04T11:43:10.086Z,13.68
2019-04-04T11:45:38.637Z,14.38
2019-04-04T11:48:07.250Z,13.55
2019-04-04T11:50:35.851Z,13.93
2019-04-04T11:53:04.826Z,14.50
2019-04-04T11:55:34.252Z,14.07
2019-04-04T11:58:03.026Z,14.43
2019-04-04T12:00:33.251Z,14.30
2019-04-04T12:03:02.063Z,15.83
2019-04-04T12:05:30.611Z,15.43
2019-04-04T12:07:59.498Z,16.12
2019-04-04T12:10:28.184Z,15.43
2019-04-04T12:12:58.563Z,15.35
2019-04-04T12:15:27.197Z,15.18
2019-04-04T12:17:55.939Z,15.55
2019-04-04T12:20:24.579Z,16.05
2019-04-04T12:22:53.115Z,16.60
2019-04-04T12:25:21.676Z,15.90
2019-04-04T12:27:50.434Z,15.88
2019-04-04T12:30:20.675Z,14.98
2019-04-04T12:32:49.953Z,16.10
2019-04-04T12:35:18.633Z,16.23
2019-04-04T12:37:47.236Z,16.67
2019-04-04T12:40:20.748Z,17.77
2019-04-04T12:42:46.714Z,17.12
2019-04-04T12:45:15.706Z,17.70
2019-04-04T12:47:44.626Z,18.07
2019-04-04T12:50:15.161Z,18.55
2019-04-04T12:52:43.856Z,19.37
2019-04-04T12:55:20.208Z,17.07
2019-04-04T12:57:48.767Z,17.23
2019-04-04T13:00:17.681Z,17.37
2019-04-04T13:02:46.883Z,18.27
2019-04-04T13:05:16.675Z,17.62
2019-04-04T13:07:45.274Z,17.27
2019-04-04T13:10:14.679Z,15.95
2019-04-04T13:12:43.638Z,16.20
2019-04-04T13:15:12.977Z,16.12
2019-04-04T13:17:41.657Z,17.35
2019-04-04T13:20:10.776Z,16.73
2019-04-04T13:22:39.496Z,16.52
2019-04-04T13:25:09.467Z,14.45
2019-04-04T13:27:38.282Z,15.10
2019-04-04T13:30:09.908Z,15.08
2019-04-04T13:32:38.998Z,13.88
2019-04-04T13:35:07.927Z,14.00
2019-04-04T13:37:36.581Z,12.73
2019-04-04T13:40:07.250Z,12.20
2019-04-04T13:42:35.896Z,11.78
2019-04-04T13:45:06.528Z,12.70
2019-04-04T13:47:38.147Z,12.13
2019-04-04T13:50:07.466Z,12.68
2019-04-04T13:52:37.401Z,12.98
2019-04-04T13:55:07.312Z,12.82
2019-04-04T13:57:39.430Z,12.75
2019-04-04T14:00:09.293Z,12.55
2019-04-04T14:02:38.297Z,12.30
2019-04-04T14:05:10.566Z,13.18
2019-04-04T14:07:38.424Z,12.78
2019-04-04T14:10:07.826Z,13.78
2019-04-04T14:12:36.450Z,13.50
2019-04-04T14:15:08.680Z,13.25
2019-04-04T14:17:37.305Z,13.32
2019-04-04T14:20:09.544Z,12.13
2019-04-04T14:22:38.222Z,12.47
2019-04-04T14:25:07.574Z,12.85
2019-04-04T14:27:36.134Z,13.03
2019-04-04T14:30:09.320Z,12.90
2019-04-04T14:32:37.878Z,12.75
2019-04-04T14:35:09.022Z,12.07
2019-04-04T14:37:37.718Z,11.63
2019-04-04T14:40:11.720Z,12.78
2019-04-04T14:42:40.406Z,12.05
2019-04-04T14:45:09.575Z,13.58
2019-04-04T14:47:38.298Z,14.03
2019-04-04T14:50:08.977Z,14.13
2019-04-04T14:52:39.354Z,15.10
2019-04-04T14:55:08.228Z,15.88
2019-04-04T14:57:36.838Z,14.85
2019-04-04T15:00:11.073Z,16.30
2019-04-04T15:02:39.726Z,14.90
2019-04-04T15:05:08.923Z,15.05
2019-04-04T15:07:37.625Z,14.33
2019-04-04T15:10:06.700Z,13.75
2019-04-04T15:12:35.533Z,15.13
2019-04-04T15:15:05.311Z,14.85
2019-04-04T15:17:34.106Z,14.63
2019-04-04T15:20:03.013Z,15.30
2019-04-04T15:22:32.125Z,15.90
2019-04-04T15:25:00.981Z,15.43
2019-04-04T15:27:29.950Z,14.90
2019-04-04T15:29:58.972Z,15.60
2019-04-04T15:32:27.887Z,15.15
2019-04-04T15:34:56.538Z,14.70
2019-04-04T15:37:25.200Z,15.13
2019-04-04T15:39:53.910Z,14.85
2019-04-04T15:42:22.520Z,15.83
2019-04-04T15:44:51.181Z,15.58
2019-04-04T15:47:19.868Z,16.45
2019-04-04T15:49:48.453Z,18.98
2019-04-04T15:52:16.987Z,18.75
2019-04-04T15:54:45.572Z,19.35
2019-04-04T15:57:14.209Z,19.80
2019-04-04T15:59:42.787Z,18.60
2019-04-04T16:02:12.247Z,18.37
2019-04-04T16:04:40.994Z,16.45
2019-04-04T16:07:10.201Z,16.95
2019-04-04T16:09:38.919Z,18.07
2019-04-04T16:12:07.499Z,17.12
2019-04-04T16:14:36.132Z,17.75
2019-04-04T16:17:04.851Z,17.90
2019-04-04T16:19:33.510Z,19.27
2019-04-04T16:22:02.146Z,18.67
2019-04-04T16:24:32.002Z,16.10
2019-04-04T16:27:00.703Z,13.60
2019-04-04T16:29:29.483Z,12.53
2019-04-04T16:31:58.198Z,12.63
2019-04-04T16:34:26.747Z,13.22
2019-04-04T16:36:55.437Z,14.93
2019-04-04T16:39:24.118Z,13.68
2019-04-04T16:42:01.981Z,16.25
2019-04-04T16:44:24.469Z,13.25
2019-04-04T16:46:54.684Z,13.13
2019-04-04T16:49:23.371Z,13.48
2019-04-04T16:51:52.120Z,12.58
2019-04-04T16:54:20.727Z,12.95
2019-04-04T16:56:49.478Z,13.00
2019-04-04T16:59:18.115Z,13.48
2019-04-04T17:01:46.860Z,13.45
2019-04-04T17:04:15.486Z,13.60
2019-04-04T17:06:44.478Z,13.15
2019-04-04T17:09:13.380Z,13.45
2019-04-04T17:11:42.780Z,13.32
2019-04-04T17:14:11.563Z,13.50
2019-04-04T17:16:40.275Z,13.20
2019-04-04T17:19:09.043Z,13.22
2019-04-04T17:21:45.866Z,13.30
2019-04-04T17:24:14.501Z,14.07
2019-04-04T17:26:43.289Z,12.35
2019-04-04T17:29:12.179Z,12.37
2019-04-04T17:31:41.126Z,13.10
2019-04-04T17:34:09.939Z,12.93
2019-04-04T17:36:39.524Z,13.35
2019-04-04T17:39:09.139Z,14.70
2019-04-04T17:41:38.145Z,13.22
2019-04-04T17:44:09.110Z,13.83
2019-04-04T17:46:39.244Z,14.23
2019-04-04T17:49:07.809Z,12.65
2019-04-04T17:51:36.626Z,13.08
2019-04-04T17:54:05.996Z,13.80
2019-04-04T17:56:35.069Z,14.45
2019-04-04T17:59:03.648Z,13.98
2019-04-04T18:01:34.360Z,16.32
2019-04-04T18:04:02.800Z,14.05
2019-04-04T18:06:31.598Z,15.13
2019-04-04T18:09:00.143Z,16.40
2019-04-04T18:11:28.864Z,15.93
2019-04-04T18:13:58.677Z,15.58
2019-04-04T18:16:27.369Z,15.10
2019-04-04T18:18:55.897Z,14.23
2019-04-04T18:21:24.767Z,14.15
2019-04-04T18:23:53.313Z,14.65
2019-04-04T18:26:22.204Z,15.05
2019-04-04T18:28:50.776Z,15.55
2019-04-04T18:31:19.394Z,16.00
2019-04-04T18:33:48.258Z,15.32
2019-04-04T18:36:17.294Z,16.10
2019-04-04T18:38:46.083Z,15.30
2019-04-04T18:41:14.630Z,14.00
2019-04-04T18:43:43.584Z,14.90
2019-04-04T18:46:12.240Z,15.10
2019-04-04T18:48:40.904Z,17.85
2019-04-04T18:51:09.591Z,17.62
2019-04-04T18:53:38.185Z,16.62
2019-04-04T18:56:06.755Z,17.95
2019-04-04T18:58:35.445Z,16.52
2019-04-04T19:01:04.353Z,16.70
2019-04-04T19:03:32.909Z,17.48
2019-04-04T19:06:01.646Z,18.23
2019-04-04T19:08:30.597Z,17.27
2019-04-04T19:10:59.160Z,17.75
2019-04-04T19:13:27.801Z,19.00
2019-04-04T19:15:56.648Z,18.02
2019-04-04T19:18:25.248Z,18.67
2019-04-04T19:20:54.026Z,18.57
2019-04-04T19:23:22.580Z,21.62
2019-04-04T19:25:51.295Z,20.17
2019-04-04T19:28:20.396Z,20.20
2019-04-04T19:30:49.083Z,20.60
2019-04-04T19:33:17.756Z,22.85
2019-04-04T19:35:46.569Z,20.05
2019-04-04T19:38:15.446Z,22.58
2019-04-04T19:40:44.444Z,22.07
2019-04-04T19:43:18.317Z,25.12
2019-04-04T19:45:43.419Z,21.77
2019-04-04T19:48:12.016Z,21.50
2019-04-04T19:50:40.581Z,22.80
2019-04-04T19:53:09.195Z,22.07
2019-04-04T19:55:39.206Z,22.67
2019-04-04T19:58:08.169Z,23.87
2019-04-04T20:00:36.762Z,22.30
2019-04-04T20:03:06.330Z,24.20
2019-04-04T20:05:35.114Z,22.60
2019-04-04T20:08:03.695Z,23.00
2019-04-04T20:10:32.398Z,24.27
2019-04-04T20:13:01.155Z,24.50
2019-04-04T20:15:29.743Z,25.68
2019-04-04T20:17:58.315Z,26.62
2019-04-04T20:20:27.109Z,33.15
2019-04-04T20:22:55.895Z,29.75
2019-04-04T20:25:24.473Z,35.95
2019-04-04T20:27:54.922Z,29.98
2019-04-04T20:30:26.459Z,31.62
2019-04-04T20:32:55.055Z,27.67
2019-04-04T20:35:26.701Z,32.13
2019-04-04T20:37:54.223Z,36.42
2019-04-04T20:40:23.399Z,29.48
2019-04-04T20:42:52.470Z,27.80
2019-04-04T20:45:21.149Z,36.73
2019-04-04T20:47:49.818Z,33.98
2019-04-04T20:50:18.612Z,28.70
2019-04-04T20:52:47.177Z,32.10
2019-04-04T20:55:15.777Z,34.00
2019-04-04T20:57:44.882Z,32.70
2019-04-04T21:00:13.759Z,34.00
2019-04-04T21:02:42.353Z,32.90
2019-04-04T21:05:11.344Z,31.48
2019-04-04T21:07:40.239Z,32.35
2019-04-04T21:10:09.427Z,33.00
2019-04-04T21:12:38.010Z,33.45
2019-04-04T21:15:07.692Z,32.80
2019-04-04T21:17:36.338Z,33.70
2019-04-04T21:20:07.450Z,32.83
2019-04-04T21:22:36.049Z,32.70
2019-04-04T21:25:06.157Z,32.85
2019-04-04T21:27:35.062Z,31.95
2019-04-04T21:30:05.484Z,33.18
2019-04-04T21:32:34.067Z,33.20
2019-04-04T21:35:02.755Z,33.63
2019-04-04T21:37:31.334Z,33.28
2019-04-04T21:39:59.912Z,32.95
2019-04-04T21:42:28.500Z,33.70
2019-04-04T21:44:57.081Z,34.70
2019-04-04T21:47:25.623Z,33.75
2019-04-04T21:49:54.663Z,35.43
2019-04-04T21:52:23.243Z,34.48
2019-04-04T21:54:51.837Z,34.25
2019-04-04T21:57:20.713Z,34.38
2019-04-04T21:59:49.299Z,33.88
2019-04-04T22:02:17.885Z,34.23
2019-04-04T22:04:46.568Z,34.78
2019-04-04T22:07:15.355Z,33.38
2019-04-04T22:09:43.946Z,34.90
2019-04-04T22:12:12.835Z,34.48
2019-04-04T22:14:41.576Z,31.27
2019-04-04T22:17:10.206Z,32.40
2019-04-04T22:19:38.951Z,33.08
2019-04-04T22:22:07.679Z,32.60
2019-04-04T22:24:36.371Z,31.52
2019-04-04T22:27:05.154Z,33.63
2019-04-04T22:29:33.747Z,31.77
2019-04-04T22:32:02.738Z,32.08
2019-04-04T22:34:31.834Z,31.23
2019-04-04T22:37:00.515Z,31.77
2019-04-04T22:39:29.201Z,32.70
2019-04-04T22:41:57.784Z,33.02
2019-04-04T22:44:34.555Z,34.55
2019-04-04T22:46:56.695Z,36.15
2019-04-04T22:49:25.379Z,39.65
2019-04-04T22:51:53.965Z,43.42
2019-04-04T22:54:22.559Z,42.98
2019-04-04T22:56:51.541Z,43.23
2019-04-04T22:59:20.090Z,45.48
2019-04-04T23:01:48.710Z,45.05
2019-04-04T23:04:17.398Z,47.03
2019-04-04T23:06:45.981Z,44.60
2019-04-04T23:09:14.583Z,48.50
2019-04-04T23:11:43.250Z,49.93
2019-04-04T23:14:11.788Z,51.28
2019-04-04T23:16:40.419Z,50.83
2019-04-04T23:19:09.327Z,51.65
2019-04-04T23:21:37.893Z,52.65
2019-04-04T23:24:06.488Z,53.52
2019-04-04T23:26:35.067Z,51.08
2019-04-04T23:29:03.646Z,54.88
2019-04-04T23:31:32.227Z,54.85
2019-04-04T23:34:00.814Z,54.15
2019-04-04T23:36:35.284Z,57.67
2019-04-04T23:38:59.723Z,56.98
2019-04-04T23:41:28.511Z,57.85
2019-04-04T23:43:57.401Z,55.55
2019-04-04T23:46:26.088Z,61.13
2019-04-04T23:48:54.778Z,61.80
2019-04-04T23:51:23.309Z,64.60
2019-04-04T23:53:51.946Z,62.50
2019-04-04T23:56:20.557Z,62.35
2019-04-04T23:58:49.117Z,63.58
